createdAt,value
2022-11-08T00:00:16.681Z,4.30
2022-11-08T00:02:44.916Z,4.30
2022-11-08T00:05:30.301Z,4.67
2022-11-08T00:08:16.101Z,3.37
2022-11-08T00:11:01.699Z,3.63
2022-11-08T00:13:48.586Z,3.57
2022-11-08T00:16:16.741Z,3.30
2022-11-08T00:18:45.021Z,3.07
2022-11-08T00:21:13.201Z,2.90
2022-11-08T00:23:41.380Z,3.20
2022-11-08T00:26:09.426Z,3.10
2022-11-08T00:28:38.930Z,3.40
2022-11-08T00:31:07.271Z,3.80
2022-11-08T00:33:35.476Z,3.17
2022-11-08T00:36:04.668Z,2.90
2022-11-08T00:38:32.746Z,2.97
2022-11-08T00:41:00.846Z,2.53
2022-11-08T00:43:29.023Z,2.87
2022-11-08T00:45:58.684Z,2.90
2022-11-08T00:48:26.812Z,3.13
2022-11-08T00:50:54.914Z,2.57
2022-11-08T00:53:23.133Z,2.97
2022-11-08T00:55:59.050Z,2.67
2022-11-08T00:58:28.407Z,2.83
2022-11-08T01:00:58.537Z,2.93
2022-11-08T01:03:27.476Z,3.20
2022-11-08T01:05:56.390Z,3.73
2022-11-08T01:08:25.105Z,6.10
2022-11-08T01:10:53.910Z,6.93
2022-11-08T01:13:22.176Z,8.10
2022-11-08T01:15:50.682Z,9.53
2022-11-08T01:18:21.159Z,8.57
2022-11-08T01:20:50.694Z,8.50
2022-11-08T01:23:19.725Z,8.27
2022-11-08T01:25:49.061Z,9.50
2022-11-08T01:28:18.180Z,8.20
2022-11-08T01:30:46.613Z,7.63
2022-11-08T01:33:15.969Z,8.23
2022-11-08T01:35:47.139Z,7.70
2022-11-08T01:38:15.797Z,7.57
2022-11-08T01:40:45.347Z,7.87
2022-11-08T01:43:38.698Z,7.87
2022-11-08T01:46:35.243Z,7.33
2022-11-08T01:49:33.101Z,7.83
2022-11-08T01:52:19.972Z,6.70
2022-11-08T01:54:55.997Z,8.13
2022-11-08T01:57:26.831Z,7.50
2022-11-08T01:59:57.748Z,8.30
2022-11-08T02:02:26.081Z,8.13
2022-11-08T02:04:54.750Z,8.63
2022-11-08T02:07:25.274Z,8.80
2022-11-08T02:09:53.481Z,8.07
2022-11-08T02:12:23.673Z,8.03
2022-11-08T02:14:51.991Z,8.77
2022-11-08T02:17:20.247Z,8.60
2022-11-08T02:19:50.949Z,8.80
2022-11-08T02:22:30.148Z,9.33
2022-11-08T02:25:00.393Z,9.03
2022-11-08T02:27:28.870Z,8.87
2022-11-08T02:29:58.169Z,9.83
2022-11-08T02:32:26.720Z,10.60
2022-11-08T02:34:58.563Z,9.87
2022-11-08T02:37:28.327Z,10.03
2022-11-08T02:39:56.476Z,10.83
2022-11-08T02:42:26.045Z,9.80
2022-11-08T02:44:54.303Z,10.40
2022-11-08T02:47:24.215Z,10.37
2022-11-08T02:49:52.472Z,9.63
2022-11-08T02:52:20.604Z,10.53
2022-11-08T02:54:48.705Z,10.97
2022-11-08T02:57:16.890Z,11.17
2022-11-08T02:59:46.373Z,11.00
2022-11-08T03:02:14.586Z,10.87
2022-11-08T03:04:42.789Z,11.17
2022-11-08T03:07:11.037Z,10.97
2022-11-08T03:09:39.130Z,10.57
2022-11-08T03:12:07.889Z,10.30
2022-11-08T03:14:36.023Z,11.07
2022-11-08T03:17:05.846Z,10.90
2022-11-08T03:19:34.047Z,10.80
2022-11-08T03:22:02.537Z,10.63
2022-11-08T03:24:30.729Z,11.47
2022-11-08T03:26:58.834Z,10.70
2022-11-08T03:29:27.246Z,11.60
2022-11-08T03:31:55.423Z,9.63
2022-11-08T03:34:24.924Z,10.43
2022-11-08T03:36:53.079Z,9.90
2022-11-08T03:39:21.186Z,10.53
2022-11-08T03:41:49.288Z,10.23
2022-11-08T03:44:17.402Z,9.50
2022-11-08T03:46:45.761Z,9.77
2022-11-08T03:49:13.911Z,10.47
2022-11-08T03:51:43.404Z,9.27
2022-11-08T03:54:11.746Z,8.77
2022-11-08T03:56:40.092Z,8.30
2022-11-08T03:59:08.510Z,8.00
2022-11-08T04:01:36.970Z,8.73
2022-11-08T04:04:05.515Z,8.20
2022-11-08T04:06:33.757Z,6.97
2022-11-08T04:09:03.403Z,7.10
2022-11-08T04:11:49.091Z,7.00
2022-11-08T04:14:34.458Z,6.90
2022-11-08T04:17:03.065Z,7.90
2022-11-08T04:19:48.499Z,8.13
2022-11-08T04:22:16.810Z,8.93
2022-11-08T04:24:46.430Z,8.90
2022-11-08T04:27:14.526Z,9.73
2022-11-08T04:29:42.607Z,10.20
2022-11-08T04:32:10.756Z,9.60
2022-11-08T04:34:38.901Z,10.67
2022-11-08T04:37:07.101Z,12.03
2022-11-08T04:39:35.219Z,11.40
2022-11-08T04:42:05.084Z,11.50
2022-11-08T04:44:33.288Z,11.63
2022-11-08T04:47:01.554Z,10.93
2022-11-08T04:49:29.719Z,10.07
2022-11-08T04:51:57.840Z,10.87
2022-11-08T04:54:26.047Z,10.13
2022-11-08T04:56:54.155Z,10.20
2022-11-08T04:59:23.638Z,9.53
2022-11-08T05:01:51.900Z,10.07
2022-11-08T05:04:20.202Z,8.63
2022-11-08T05:06:48.395Z,7.90
2022-11-08T05:09:16.598Z,7.80
2022-11-08T05:11:44.706Z,8.13
2022-11-08T05:14:12.802Z,7.77
2022-11-08T05:16:42.304Z,6.63
2022-11-08T05:19:13.172Z,6.47
2022-11-08T05:21:58.664Z,6.03
2022-11-08T05:24:26.967Z,6.20
2022-11-08T05:26:55.355Z,5.13
2022-11-08T05:29:23.581Z,5.00
2022-11-08T05:31:53.137Z,5.70
2022-11-08T05:34:21.274Z,5.40
2022-11-08T05:36:49.283Z,6.20
2022-11-08T05:39:17.451Z,6.07
2022-11-08T05:41:45.575Z,5.53
2022-11-08T05:44:13.729Z,7.43
2022-11-08T05:46:41.864Z,6.80
2022-11-08T05:49:11.291Z,6.93
2022-11-08T05:51:39.448Z,7.40
2022-11-08T05:54:08.280Z,11.23
2022-11-08T05:56:36.853Z,15.83
2022-11-08T05:59:04.953Z,18.47
2022-11-08T06:01:33.120Z,20.67
2022-11-08T06:04:01.309Z,22.27
2022-11-08T06:06:30.912Z,21.03
2022-11-08T06:08:59.112Z,13.23
2022-11-08T06:11:28.932Z,7.10
2022-11-08T06:13:57.470Z,6.30
2022-11-08T06:16:26.020Z,5.30
2022-11-08T06:18:54.342Z,5.23
2022-11-08T06:21:23.268Z,5.70
2022-11-08T06:23:55.264Z,4.70
2022-11-08T06:26:23.608Z,5.50
2022-11-08T06:28:51.998Z,6.00
2022-11-08T06:31:20.337Z,5.87
2022-11-08T06:33:48.523Z,6.00
2022-11-08T06:36:17.014Z,6.03
2022-11-08T06:38:45.151Z,5.67
2022-11-08T06:41:19.662Z,5.37
2022-11-08T06:43:48.391Z,5.63
2022-11-08T06:46:16.898Z,5.10
2022-11-08T06:48:45.121Z,4.93
2022-11-08T06:51:13.325Z,4.20
2022-11-08T06:53:41.561Z,3.73
2022-11-08T06:56:09.967Z,4.27
2022-11-08T06:58:39.757Z,5.50
2022-11-08T07:01:09.557Z,5.23
2022-11-08T07:03:38.155Z,6.37
2022-11-08T07:06:07.771Z,6.93
2022-11-08T07:08:36.461Z,6.90
2022-11-08T07:11:05.411Z,6.10
2022-11-08T07:13:33.668Z,6.40
2022-11-08T07:16:03.571Z,6.47
2022-11-08T07:18:31.882Z,6.17
2022-11-08T07:21:01.185Z,6.77
2022-11-08T07:23:30.080Z,7.80
2022-11-08T07:26:01.196Z,7.47
2022-11-08T07:28:29.417Z,7.93
2022-11-08T07:31:00.145Z,9.27
2022-11-08T07:33:30.017Z,9.50
2022-11-08T07:35:58.210Z,7.53
2022-11-08T07:38:27.149Z,6.93
2022-11-08T07:40:58.932Z,7.00
2022-11-08T07:43:28.274Z,7.63
2022-11-08T07:45:58.288Z,7.50
2022-11-08T07:48:27.621Z,9.07
2022-11-08T07:50:57.244Z,54.53
2022-11-08T07:53:25.554Z,33.50
2022-11-08T07:55:55.118Z,10.57
2022-11-08T07:58:23.362Z,9.13
2022-11-08T08:00:51.504Z,8.17
2022-11-08T08:03:20.565Z,7.50
2022-11-08T08:05:58.209Z,7.00
2022-11-08T08:08:31.219Z,7.83
2022-11-08T08:11:00.542Z,7.37
2022-11-08T08:13:28.788Z,8.37
2022-11-08T08:15:59.676Z,7.30
2022-11-08T08:18:27.952Z,7.00
2022-11-08T08:20:56.071Z,5.90
2022-11-08T08:23:24.158Z,7.23
2022-11-08T08:25:54.101Z,6.60
2022-11-08T08:28:22.333Z,7.10
2022-11-08T08:30:50.450Z,7.10
2022-11-08T08:33:30.153Z,8.10
2022-11-08T08:36:01.058Z,8.40
2022-11-08T08:38:29.943Z,8.57
2022-11-08T08:40:59.850Z,8.43
2022-11-08T08:43:28.696Z,8.27
2022-11-08T08:45:59.601Z,8.90
2022-11-08T08:48:27.819Z,10.20
2022-11-08T08:50:56.059Z,9.63
2022-11-08T08:53:24.341Z,11.13
2022-11-08T08:55:53.133Z,11.33
2022-11-08T08:58:23.704Z,11.70
2022-11-08T09:03:40.113Z,11.17
2022-11-08T09:06:08.809Z,11.97
2022-11-08T09:08:37.074Z,12.73
2022-11-08T09:11:05.407Z,11.70
2022-11-08T09:13:34.987Z,12.20
2022-11-08T09:16:03.785Z,11.83
2022-11-08T09:18:32.877Z,12.20
2022-11-08T09:21:04.318Z,11.97
2022-11-08T09:23:32.555Z,11.13
2022-11-08T09:26:01.591Z,11.03
2022-11-08T09:28:31.976Z,11.17
2022-11-08T09:31:06.847Z,12.03
2022-11-08T09:33:35.246Z,12.97
2022-11-08T09:36:04.784Z,11.40
2022-11-08T09:38:33.223Z,12.77
2022-11-08T09:41:23.488Z,22.83
2022-11-08T09:44:08.745Z,14.37
2022-11-08T09:46:44.770Z,14.20
2022-11-08T09:49:18.271Z,13.37
2022-11-08T09:51:46.769Z,13.03
2022-11-08T09:54:21.325Z,13.10
2022-11-08T09:56:51.508Z,13.63
2022-11-08T09:59:29.587Z,14.50
2022-11-08T10:01:59.574Z,13.57
2022-11-08T10:04:30.810Z,14.40
2022-11-08T10:07:06.267Z,13.77
2022-11-08T10:10:07.150Z,14.57
2022-11-08T10:12:46.601Z,15.00
2022-11-08T10:15:23.284Z,14.97
2022-11-08T10:18:04.326Z,15.93
2022-11-08T10:20:42.765Z,16.73
2022-11-08T10:23:21.607Z,15.27
2022-11-08T10:25:53.593Z,14.17
2022-11-08T10:28:27.102Z,15.37
2022-11-08T10:30:56.552Z,21.87
2022-11-08T10:33:30.605Z,64.67
2022-11-08T10:36:02.645Z,21.50
2022-11-08T10:38:36.893Z,15.37
2022-11-08T10:41:11.354Z,14.33
2022-11-08T10:43:45.809Z,15.70
2022-11-08T10:46:37.570Z,15.57
2022-11-08T10:49:13.142Z,21.73
2022-11-08T10:51:41.530Z,15.87
2022-11-08T10:54:09.981Z,14.37
2022-11-08T10:56:55.955Z,15.93
2022-11-08T10:59:31.946Z,16.57
2022-11-08T11:02:00.742Z,17.10
2022-11-08T11:04:31.785Z,17.23
2022-11-08T11:07:03.105Z,128.20
2022-11-08T11:09:31.545Z,33.43
2022-11-08T11:12:01.266Z,18.27
2022-11-08T11:14:29.671Z,17.73
2022-11-08T11:16:59.319Z,15.93
2022-11-08T11:19:28.465Z,16.57
2022-11-08T11:21:59.707Z,16.17
2022-11-08T11:24:28.151Z,15.47
2022-11-08T11:27:04.036Z,17.70
2022-11-08T11:29:33.234Z,18.03
2022-11-08T11:32:22.327Z,16.33
2022-11-08T11:34:54.067Z,17.27
2022-11-08T11:37:34.759Z,18.23
2022-11-08T11:40:07.416Z,18.57
2022-11-08T11:42:45.542Z,17.73
2022-11-08T11:45:18.769Z,18.33
2022-11-08T11:47:48.760Z,18.20
2022-11-08T11:50:23.154Z,18.07
2022-11-08T11:52:51.784Z,17.33
2022-11-08T11:55:21.026Z,16.93
2022-11-08T11:57:54.291Z,17.43
2022-11-08T12:00:22.712Z,18.77
2022-11-08T12:03:07.683Z,16.77
2022-11-08T12:05:43.033Z,17.33
2022-11-08T12:08:19.245Z,17.40
2022-11-08T12:10:53.117Z,17.73
2022-11-08T12:13:26.569Z,18.33
2022-11-08T12:15:57.121Z,18.87
2022-11-08T12:18:42.611Z,18.00
2022-11-08T12:21:15.096Z,45.50
2022-11-08T12:23:58.455Z,22.10
2022-11-08T12:26:30.479Z,19.33
2022-11-08T12:29:18.751Z,16.77
2022-11-08T12:31:50.416Z,17.60
2022-11-08T12:34:21.009Z,17.77
2022-11-08T12:36:55.385Z,17.67
2022-11-08T12:39:28.325Z,18.27
2022-11-08T12:42:02.731Z,19.17
2022-11-08T12:44:45.110Z,17.37
2022-11-08T12:47:15.671Z,17.33
2022-11-08T12:49:50.712Z,18.20
2022-11-08T12:52:24.745Z,17.73
2022-11-08T12:54:55.620Z,18.83
2022-11-08T12:57:28.216Z,18.37
2022-11-08T13:00:01.311Z,17.97
2022-11-08T13:02:32.149Z,18.20
2022-11-08T13:05:05.458Z,17.17
2022-11-08T13:07:39.961Z,17.77
2022-11-08T13:10:13.123Z,18.67
2022-11-08T13:12:59.434Z,19.07
2022-11-08T13:15:28.639Z,17.77
2022-11-08T13:18:16.618Z,18.83
2022-11-08T13:20:46.188Z,18.63
2022-11-08T13:23:17.191Z,17.47
2022-11-08T13:25:46.063Z,19.10
2022-11-08T13:28:32.957Z,18.07
2022-11-08T13:31:03.880Z,18.33
2022-11-08T13:33:34.197Z,18.03
2022-11-08T13:36:11.170Z,17.13
2022-11-08T13:38:47.074Z,19.00
2022-11-08T13:41:18.276Z,18.30
2022-11-08T13:43:47.395Z,18.90
2022-11-08T13:46:34.475Z,18.80
2022-11-08T13:49:07.074Z,18.00
2022-11-08T13:51:36.060Z,17.93
2022-11-08T13:54:06.917Z,18.20
2022-11-08T13:56:46.392Z,21.83
2022-11-08T13:59:33.360Z,39.53
2022-11-08T14:02:03.491Z,20.17
2022-11-08T14:04:33.672Z,18.07
2022-11-08T14:07:08.119Z,20.10
2022-11-08T14:09:42.988Z,20.63
2022-11-08T14:12:15.536Z,20.93
2022-11-08T14:14:46.514Z,19.83
2022-11-08T14:17:31.856Z,20.67
2022-11-08T14:20:16.040Z,19.33
2022-11-08T14:22:49.921Z,18.37
2022-11-08T14:25:23.919Z,19.13
2022-11-08T14:27:52.399Z,18.20
2022-11-08T14:30:21.654Z,16.43
2022-11-08T14:32:50.132Z,17.67
2022-11-08T14:35:22.672Z,17.97
2022-11-08T14:37:51.230Z,16.70
2022-11-08T14:40:22.461Z,17.53
2022-11-08T14:42:51.771Z,18.23
2022-11-08T14:45:25.686Z,17.87
2022-11-08T14:47:55.761Z,18.57
2022-11-08T14:50:25.386Z,18.57
2022-11-08T14:52:53.805Z,18.17
2022-11-08T14:55:26.143Z,17.47
2022-11-08T14:57:54.532Z,19.20
2022-11-08T15:00:24.340Z,18.37
2022-11-08T15:02:53.927Z,18.50
2022-11-08T15:05:26.915Z,18.13
2022-11-08T15:07:55.597Z,18.97
2022-11-08T15:10:25.562Z,19.27
2022-11-08T15:12:54.032Z,18.30
2022-11-08T15:15:23.847Z,19.07
2022-11-08T15:18:07.457Z,18.70
2022-11-08T15:20:35.938Z,18.73
2022-11-08T15:23:04.456Z,18.10
2022-11-08T15:25:37.831Z,18.57
2022-11-08T15:28:16.751Z,18.00
2022-11-08T15:30:45.995Z,18.23
2022-11-08T15:33:22.417Z,19.43
2022-11-08T15:35:51.636Z,20.10
2022-11-08T15:38:29.271Z,17.83
2022-11-08T15:40:59.955Z,18.67
2022-11-08T15:43:37.321Z,19.47
2022-11-08T15:46:06.804Z,19.13
2022-11-08T15:48:35.340Z,20.67
2022-11-08T15:51:05.997Z,19.23
2022-11-08T15:53:35.646Z,20.03
2022-11-08T15:56:06.342Z,18.80
2022-11-08T15:58:36.359Z,19.13
2022-11-08T16:01:05.909Z,17.43
2022-11-08T16:03:34.878Z,19.20
2022-11-08T16:06:03.421Z,22.47
2022-11-08T16:08:31.836Z,20.57
2022-11-08T16:11:01.480Z,32.93
2022-11-08T16:13:32.964Z,25.00
2022-11-08T16:16:01.936Z,23.57
2022-11-08T16:18:34.198Z,22.13
2022-11-08T16:21:02.966Z,20.67
2022-11-08T16:23:31.433Z,21.00
2022-11-08T16:26:00.877Z,23.40
2022-11-08T16:28:34.194Z,21.57
2022-11-08T16:31:02.873Z,20.97
2022-11-08T16:33:32.183Z,22.00
2022-11-08T16:36:01.295Z,20.67
2022-11-08T16:38:30.773Z,20.50
2022-11-08T16:40:59.156Z,21.83
2022-11-08T16:43:27.856Z,21.00
2022-11-08T16:46:05.536Z,22.57
2022-11-08T16:48:34.760Z,21.27
2022-11-08T16:51:03.978Z,23.90
2022-11-08T16:53:32.518Z,24.47
2022-11-08T16:56:01.204Z,21.70
2022-11-08T16:58:29.633Z,20.90
2022-11-08T17:00:59.713Z,22.50
2022-11-08T17:03:29.672Z,22.23
2022-11-08T17:05:58.432Z,21.83
2022-11-08T17:08:27.307Z,22.60
2022-11-08T17:10:56.215Z,24.93
2022-11-08T17:13:24.769Z,28.40
2022-11-08T17:15:53.459Z,28.80
2022-11-08T17:18:23.358Z,30.87
2022-11-08T17:20:51.805Z,29.27
2022-11-08T17:23:22.288Z,30.70
2022-11-08T17:25:50.694Z,31.93
2022-11-08T17:28:19.257Z,31.50
2022-11-08T17:30:47.854Z,31.40
2022-11-08T17:33:16.549Z,30.83
2022-11-08T17:35:46.642Z,31.17
2022-11-08T17:38:14.970Z,32.33
2022-11-08T17:40:43.447Z,30.43
2022-11-08T17:43:13.705Z,29.73
2022-11-08T17:45:42.862Z,30.40
2022-11-08T17:48:11.257Z,33.10
2022-11-08T17:50:39.726Z,32.47
2022-11-08T17:53:09.493Z,34.30
2022-11-08T17:55:37.905Z,34.33
2022-11-08T17:58:06.474Z,39.10
2022-11-08T18:00:34.936Z,55.13
2022-11-08T18:03:08.766Z,38.67
2022-11-08T18:05:40.053Z,32.23
2022-11-08T18:08:09.770Z,29.10
2022-11-08T18:10:38.277Z,27.13
2022-11-08T18:13:06.728Z,25.13
2022-11-08T18:15:35.089Z,25.17
2022-11-08T18:18:03.505Z,25.20
2022-11-08T18:20:32.758Z,24.40
2022-11-08T18:23:01.604Z,33.73
2022-11-08T18:25:31.466Z,25.47
2022-11-08T18:28:00.108Z,25.83
2022-11-08T18:30:28.487Z,31.23
2022-11-08T18:32:57.023Z,31.63
2022-11-08T18:35:27.378Z,31.97
2022-11-08T18:37:55.895Z,31.20
2022-11-08T18:40:24.424Z,33.87
2022-11-08T18:42:54.313Z,33.17
2022-11-08T18:45:22.769Z,34.30
2022-11-08T18:47:51.144Z,33.77
2022-11-08T18:50:19.552Z,34.17
2022-11-08T18:52:48.256Z,30.53
2022-11-08T18:55:16.799Z,30.97
2022-11-08T18:57:46.095Z,33.13
2022-11-08T19:00:17.603Z,31.47
2022-11-08T19:02:46.054Z,30.30
2022-11-08T19:05:14.473Z,31.70
2022-11-08T19:07:42.832Z,30.17
2022-11-08T19:10:11.383Z,29.77
2022-11-08T19:12:39.754Z,30.60
2022-11-08T19:15:08.726Z,30.10
2022-11-08T19:17:38.712Z,26.93
2022-11-08T19:20:07.688Z,26.77
2022-11-08T19:22:36.189Z,26.83
2022-11-08T19:25:04.559Z,26.20
2022-11-08T19:27:33.056Z,23.80
2022-11-08T19:30:01.506Z,22.10
2022-11-08T19:32:29.949Z,21.63
2022-11-08T19:34:59.824Z,26.07
2022-11-08T19:37:28.237Z,23.03
2022-11-08T19:39:56.609Z,23.17
2022-11-08T19:42:25.144Z,23.17
2022-11-08T19:44:53.618Z,20.87
2022-11-08T19:47:22.238Z,19.23
2022-11-08T19:49:50.569Z,19.03
2022-11-08T19:52:20.476Z,18.30
2022-11-08T19:54:50.320Z,20.77
2022-11-08T19:57:18.847Z,20.23
2022-11-08T19:59:47.322Z,22.03
2022-11-08T20:02:15.888Z,23.03
2022-11-08T20:04:44.431Z,26.50
2022-11-08T20:07:12.855Z,27.63
2022-11-08T20:09:42.824Z,27.90
2022-11-08T20:12:11.339Z,31.37
2022-11-08T20:14:39.749Z,27.63
2022-11-08T20:17:08.203Z,22.37
2022-11-08T20:19:36.627Z,21.33
2022-11-08T20:22:05.097Z,21.90
2022-11-08T20:24:33.704Z,22.27
2022-11-08T20:27:03.797Z,20.73
2022-11-08T20:29:32.467Z,20.57
2022-11-08T20:32:00.942Z,22.00
2022-11-08T20:34:29.753Z,21.60
2022-11-08T20:36:58.414Z,20.47
2022-11-08T20:39:27.068Z,20.67
2022-11-08T20:41:55.437Z,20.60
2022-11-08T20:44:25.250Z,21.53
2022-11-08T20:46:53.840Z,19.20
2022-11-08T20:49:22.395Z,22.70
2022-11-08T20:51:50.784Z,21.93
2022-11-08T20:54:19.198Z,24.30
2022-11-08T20:56:47.636Z,26.27
2022-11-08T20:59:16.116Z,26.20
2022-11-08T21:01:46.161Z,26.20
2022-11-08T21:04:14.969Z,29.20
2022-11-08T21:06:43.783Z,27.00
2022-11-08T21:09:37.151Z,26.63
2022-11-08T21:12:01.122Z,25.47
2022-11-08T21:14:29.460Z,25.13
2022-11-08T21:17:20.750Z,23.73
2022-11-08T21:19:49.381Z,21.83
2022-11-08T21:22:17.722Z,21.50
2022-11-08T21:24:46.838Z,22.53
2022-11-08T21:27:15.313Z,20.17
2022-11-08T21:29:43.767Z,19.27
2022-11-08T21:32:13.612Z,18.07
2022-11-08T21:34:45.649Z,17.47
2022-11-08T21:37:14.520Z,18.63
2022-11-08T21:39:43.024Z,17.17
2022-11-08T21:42:11.508Z,16.27
2022-11-08T21:44:39.996Z,16.93
2022-11-08T21:47:08.349Z,17.50
2022-11-08T21:49:38.202Z,16.43
2022-11-08T21:52:06.832Z,16.27
2022-11-08T21:54:35.248Z,16.50
2022-11-08T21:57:03.613Z,16.97
2022-11-08T21:59:32.101Z,18.77
2022-11-08T22:02:00.475Z,16.60
2022-11-08T22:04:28.886Z,16.40
2022-11-08T22:06:58.838Z,17.63
2022-11-08T22:09:27.433Z,17.63
2022-11-08T22:11:55.844Z,16.13
2022-11-08T22:14:24.269Z,17.70
2022-11-08T22:16:52.696Z,15.27
2022-11-08T22:19:21.192Z,15.13
2022-11-08T22:21:49.615Z,14.67
2022-11-08T22:24:21.210Z,15.93
2022-11-08T22:26:50.446Z,15.73
2022-11-08T22:29:19.158Z,15.43
2022-11-08T22:31:47.772Z,16.07
2022-11-08T22:34:16.663Z,15.93
2022-11-08T22:36:45.995Z,16.17
2022-11-08T22:39:15.173Z,15.63
2022-11-08T22:41:45.217Z,16.43
2022-11-08T22:44:13.844Z,15.47
2022-11-08T22:46:42.654Z,17.07
2022-11-08T22:49:11.423Z,18.03
2022-11-08T22:51:40.604Z,20.77
2022-11-08T22:54:09.256Z,19.63
2022-11-08T22:56:37.717Z,17.30
2022-11-08T22:59:07.651Z,16.23
2022-11-08T23:01:36.287Z,18.20
2022-11-08T23:04:04.989Z,18.00
2022-11-08T23:06:33.675Z,17.17
2022-11-08T23:09:02.242Z,17.00
2022-11-08T23:11:48.524Z,14.77
2022-11-08T23:14:37.624Z,14.40
2022-11-08T23:17:06.340Z,13.50
2022-11-08T23:19:52.397Z,13.87
2022-11-08T23:22:38.205Z,12.87
2022-11-08T23:25:07.024Z,13.47
2022-11-08T23:27:52.928Z,15.90
2022-11-08T23:30:40.515Z,15.70
2022-11-08T23:33:08.866Z,15.53
2022-11-08T23:35:37.315Z,15.50
2022-11-08T23:38:05.700Z,14.57
2022-11-08T23:40:51.824Z,15.83
2022-11-08T23:43:38.071Z,13.80
2022-11-08T23:46:09.237Z,15.20
2022-11-08T23:48:38.163Z,15.27
2022-11-08T23:51:07.351Z,16.17
2022-11-08T23:53:37.370Z,16.53
2022-11-08T23:56:06.393Z,16.33
2022-11-08T23:58:35.319Z,16.00
